x

Mt Desert Rock, Me (mdrm1) Weather Station

5:00 - Thu 5th May 2016 All times are EDT. -4 hours from GMT.

  • Wind
    29mph, 32mph gusts
  • Ar Temp 43°f
  • Sea Pressure 1007.7mb
  • Mt Desert Rock, Me
  • Mt Desert Rock, Me

More Historic Weather Station data

Upgrade to MSW Pro to gain access to the past 30 days of data for over 8000 Wavebouys and Weather Stations around the globe.

Join Pro

Comparision Forecast

View Surf forecast
   
Qui 05/05 5:00 29 32 mph 1007.7mb 43f
4:00 28 30 mph 1008mb 43f
3:00 26 30 mph 1008.1mb 43f
2:00 31 34 mph 1008.6mb 43f
1:00 31 34 mph 1008.9mb 43f
12:00 33 37 mph 1008.8mb 42f
11:00 36 40 mph 1008.9mb 41f
10:00 31 34 mph 1009.2mb 41f
9:00 33 37 mph 1008.8mb 41f
8:00 36 41 mph 1008.2mb 41f
7:00 33 38 mph 1008.1mb 41f
6:00 34 38 mph 1007.9mb 41f
5:00 36 39 mph 1007.4mb 41f
4:00 31 36 mph 1007.7mb 42f
3:00 30 33 mph 1008.5mb 42f
2:00 28 31 mph 1009.2mb 42f
1:00 29 30 mph 1009.7mb 42f
12:00 24 26 mph 1010.2mb 43f
Qua 05/04 11:00 22 24 mph 1011.4mb 43f
10:00 18 21 mph 1011.9mb 42f
9:00 22 24 mph 1012mb 43f
8:00 20 21 mph 1012.3mb 43f
7:00 22 23 mph 1011.9mb 43f
6:00 25 28 mph 1011.9mb 42f
5:00 25 28 mph 1012.3mb 42f
4:00 29 31 mph 1012.5mb 42f
3:00 26 30 mph 1012.9mb 42f
2:00 23 26 mph 1013.9mb 42f
1:00 25 26 mph 1013.5mb 41f
12:00 22 24 mph 1014.1mb 40f
11:00 18 21 mph 1014.2mb 39f
10:00 21 22 mph 1013.6mb 39f
9:00 20 21 mph 1013.9mb 41f
8:00 21 23 mph 1013.2mb 41f
7:00 21 22 mph 1012.7mb 41f
6:00 20 21 mph 1012.5mb 42f
5:00 9 10 mph 1012.1mb 44f
4:00 10 11 mph 1012mb 44f
3:00 11 13 mph 1011.6mb 45f
2:00 10
mph
1011.6mb 45f
1:00 6
mph
1011.8mb 45f
12:00 5 6 mph 1012mb 44f
Ter 05/03 11:00 7
mph
1012mb 45f
10:00 7 8 mph 1012.2mb 45f
9:00 3 5 mph 1012.3mb 46f
8:00 2 3 mph 1011.7mb 45f
7:00 1 2 mph 1011.6mb 45f
6:00  -  1 mph 1011.5mb 46f
5:00 2 3 mph 1011.3mb 45f
4:00 5
mph
1010.9mb 44f
3:00 7 8 mph 1011.5mb 44f
2:00 9 10 mph 1011.9mb 44f
1:00 6 7 mph 1012mb 44f
12:00 9
mph
1012.5mb 44f
11:00 11
mph
1012.6mb 43f
10:00 13 14 mph 1012.8mb 43f
9:00 13
mph
1012.8mb 43f
8:00 11 13 mph 1012.4mb 42f
7:00 13 14 mph 1012.4mb 43f
6:00 10 11 mph 1012.1mb 43f
5:00 14 15 mph 1010.7mb 42f
4:00 13
mph
1011mb 42f
3:00 22 23 mph 1010.3mb 42f
2:00 17 20 mph 1010.5mb 42f
1:00 24 26 mph 1010.4mb 41f
12:00 25 28 mph 1010.1mb 42f
Seg 05/02 11:00 30 32 mph 1009.8mb 43f
10:00 28 30 mph 1009.9mb 44f
9:00 29 31 mph 1011.3mb 42f
8:00 25 28 mph 1012.6mb 42f
7:00 28 30 mph 1010.6mb 43f
6:00 33 37 mph 1011.3mb 45f
5:00 31 34 mph 1012.7mb 44f
4:00 25 28 mph 1014.5mb 44f
3:00 20 22 mph 1016.3mb 43f
2:00 20 22 mph 1016.8mb 44f
1:00 20 22 mph 1017.6mb 44f
12:00 18 20 mph 1018.7mb 44f
11:00 15 16 mph 1019.6mb 44f
10:00 13 15 mph 1020.2mb 44f
9:00 13 14 mph 1020.7mb 44f
8:00 14 15 mph 1020.8mb 45f
7:00 16 17 mph 1020.5mb 45f
6:00 10 11 mph 1021.3mb 44f
5:00 9 10 mph 1021.3mb 44f
4:00 8
mph
1021.5mb 44f
3:00 6
mph
1022mb 44f
2:00 9 10 mph 1021.9mb 44f
1:00 9 10 mph 1022mb 44f
12:00 11
mph
1022.3mb 44f
Dom 05/01 11:00 10 11 mph 1022.9mb 44f